Time;durP1;ratioP1;P1;durP2;ratioP2;P2;SDS_P1;SDS_P2;PMS_P1;PMS_P2;Temp;Humidity;BMP_temperature;BMP_pressure;BME280_temperature;BME280_humidity;BME280_pressure;Samples;Min_cycle;Max_cycle;Signal;HPM_P1;HPM_P2
2022/01/18 00:02:01;;;;;;;11.57;5.57;;;4.50;99.90;;;;;;4969142;28;20049;-71
2022/01/18 00:04:27;;;;;;;10.02;5.70;;;4.50;99.90;;;;;;4991143;28;20018;-72
2022/01/18 00:06:53;;;;;;;11.10;5.88;;;4.50;99.90;;;;;;4985500;28;20101;-71
2022/01/18 00:09:23;;;;;;;9.23;5.57;;;4.50;99.90;;;;;;4980536;28;20439;-72
2022/01/18 00:11:58;;;;;;;11.20;5.55;;;4.50;99.90;;;;;;4969347;28;20483;-72
2022/01/18 00:14:39;;;;;;;8.63;5.03;;;4.50;99.90;;;;;;4975157;28;20443;-72
2022/01/18 00:17:18;;;;;;;7.93;4.95;;;4.50;99.90;;;;;;4990639;28;20037;-72
2022/01/18 00:19:53;;;;;;;10.40;4.80;;;4.50;99.90;;;;;;4990437;28;20454;-72
2022/01/18 00:22:21;;;;;;;10.02;5.70;;;4.40;99.90;;;;;;4990711;28;20498;-73
2022/01/18 00:24:46;;;;;;;7.78;5.00;;;4.50;99.90;;;;;;4989334;28;20058;-72
2022/01/18 00:27:15;;;;;;;7.22;4.38;;;4.50;99.90;;;;;;4988496;28;20053;-72
2022/01/18 00:29:54;;;;;;;8.25;4.68;;;4.50;99.90;;;;;;4987659;28;20391;-72
2022/01/18 00:35:16;;;;;;;6.53;3.83;;;4.50;99.90;;;;;;4982620;28;20041;-71
2022/01/18 00:37:51;;;;;;;7.78;4.22;;;4.50;99.90;;;;;;4988118;28;20034;-72
2022/01/18 00:40:16;;;;;;;5.68;3.55;;;4.40;99.90;;;;;;4984229;28;20022;-72
2022/01/18 00:42:42;;;;;;;6.18;4.18;;;4.40;99.90;;;;;;4969302;28;20033;-71
2022/01/18 00:45:08;;;;;;;6.47;4.18;;;4.50;99.90;;;;;;4986717;28;20022;-72
2022/01/18 00:47:34;;;;;;;8.82;4.80;;;4.50;99.90;;;;;;4967490;28;20384;-72
2022/01/18 00:50:01;;;;;;;7.03;4.10;;;4.50;99.90;;;;;;4977513;28;20030;-72
2022/01/18 00:52:30;;;;;;;7.65;4.72;;;4.50;99.90;;;;;;4987807;28;20113;-72
2022/01/18 00:54:56;;;;;;;6.68;4.45;;;4.50;99.90;;;;;;4973017;28;20091;-72
2022/01/18 00:57:22;;;;;;;7.65;4.68;;;4.50;99.90;;;;;;4989009;28;20109;-72
2022/01/18 00:59:47;;;;;;;6.70;4.53;;;4.50;99.90;;;;;;4976457;28;20026;-73
2022/01/18 01:02:14;;;;;;;8.32;4.25;;;4.50;99.90;;;;;;4975514;28;20530;-71
2022/01/18 01:04:47;;;;;;;9.35;4.78;;;4.50;99.90;;;;;;4977256;28;20479;-72
2022/01/18 01:07:13;;;;;;;9.18;4.18;;;4.50;99.90;;;;;;4992272;28;20038;-72
2022/01/18 01:09:39;;;;;;;7.53;4.18;;;4.50;99.90;;;;;;4990152;28;20491;-72
2022/01/18 01:12:06;;;;;;;8.23;4.35;;;4.50;99.90;;;;;;4973389;28;20038;-69
2022/01/18 01:14:33;;;;;;;7.70;4.70;;;4.50;99.90;;;;;;4988321;28;20081;-70
2022/01/18 01:46:36;;;;;;;9.30;4.70;;;4.50;99.90;;;;;;4986501;28;20030;-71
2022/01/18 01:49:05;;;;;;;10.48;6.05;;;4.50;99.90;;;;;;4988233;28;20022;-71
2022/01/18 01:51:32;;;;;;;11.65;5.45;;;4.50;99.90;;;;;;4981593;28;20025;-71
2022/01/18 01:54:00;;;;;;;9.75;5.28;;;4.50;99.90;;;;;;4990974;28;20074;-71
2022/01/18 01:56:27;;;;;;;12.10;6.13;;;4.40;99.90;;;;;;4978742;28;20436;-71
2022/01/18 01:58:52;;;;;;;10.18;4.90;;;4.40;99.90;;;;;;4977041;28;20030;-71
2022/01/18 02:01:20;;;;;;;8.85;5.50;;;4.40;99.90;;;;;;4987365;28;20356;-70
2022/01/18 02:03:47;;;;;;;10.60;6.03;;;4.40;99.90;;;;;;4991172;28;20027;-71
2022/01/18 02:06:13;;;;;;;9.65;6.10;;;4.40;99.90;;;;;;4989499;28;20038;-70
2022/01/18 02:08:39;;;;;;;12.82;6.93;;;4.40;99.90;;;;;;4984730;28;20030;-70
2022/01/18 02:11:04;;;;;;;12.63;6.60;;;4.40;99.90;;;;;;4985463;28;20104;-71
2022/01/18 02:13:32;;;;;;;14.02;7.72;;;4.40;99.90;;;;;;4986555;28;20034;-71
2022/01/18 02:23:55;;;;;;;15.07;7.78;;;4.40;99.90;;;;;;4988151;28;20402;-71
2022/01/18 02:26:21;;;;;;;12.05;7.50;;;4.30;99.90;;;;;;4987952;28;20117;-71
2022/01/18 02:28:46;;;;;;;13.52;7.10;;;4.30;99.90;;;;;;4990240;28;20019;-71
2022/01/18 02:31:12;;;;;;;14.73;7.70;;;4.30;99.90;;;;;;4985236;28;20038;-72
2022/01/18 02:33:38;;;;;;;13.00;7.40;;;4.30;99.90;;;;;;4988559;28;20026;-72
2022/01/18 02:36:09;;;;;;;14.95;7.60;;;4.30;99.90;;;;;;4984425;28;20033;-71
2022/01/18 02:38:35;;;;;;;14.82;7.50;;;4.30;99.90;;;;;;4986389;28;20607;-71
2022/01/18 02:41:01;;;;;;;14.25;9.32;;;4.30;99.90;;;;;;4983144;28;20097;-71
2022/01/18 02:46:12;;;;;;;13.77;7.13;;;4.30;99.90;;;;;;4990455;28;20025;-71
2022/01/18 02:48:37;;;;;;;11.82;7.05;;;4.20;99.90;;;;;;4990872;28;20025;-71
2022/01/18 02:51:04;;;;;;;12.88;6.95;;;4.20;99.90;;;;;;4988812;28;20069;-72
2022/01/18 02:53:30;;;;;;;11.93;7.30;;;4.20;99.90;;;;;;4992014;28;20022;-71
2022/01/18 02:55:58;;;;;;;16.23;7.97;;;4.20;99.90;;;;;;4971687;28;20471;-71
2022/01/18 02:58:28;;;;;;;15.38;8.48;;;4.20;99.90;;;;;;4989196;28;20030;-70
2022/01/18 03:03:35;;;;;;;16.90;7.90;;;4.10;99.90;;;;;;4990066;28;20112;-71
2022/01/18 03:06:01;;;;;;;11.65;6.93;;;4.10;99.90;;;;;;4975199;28;20495;-71
2022/01/18 03:08:30;;;;;;;14.23;6.55;;;4.10;99.90;;;;;;4992224;28;20113;-71
2022/01/18 03:10:57;;;;;;;14.27;7.65;;;4.10;99.90;;;;;;4986546;28;20030;-71
2022/01/18 03:13:23;;;;;;;16.70;9.00;;;4.10;99.90;;;;;;4995402;28;20100;-71
2022/01/18 03:15:49;;;;;;;13.25;8.38;;;4.10;99.90;;;;;;4986597;28;20023;-72
2022/01/18 03:18:15;;;;;;;14.35;8.00;;;4.10;99.90;;;;;;4997259;28;20057;-71
2022/01/18 03:20:40;;;;;;;16.75;8.55;;;4.10;99.90;;;;;;4993157;28;20069;-71
2022/01/18 03:23:13;;;;;;;12.43;7.28;;;4.10;99.90;;;;;;4988634;28;20019;-71
2022/01/18 03:25:51;;;;;;;14.75;8.00;;;4.10;99.90;;;;;;4987391;28;20380;-70
2022/01/18 03:28:17;;;;;;;13.52;7.53;;;4.10;99.90;;;;;;4976589;28;20503;-71
2022/01/18 03:30:47;;;;;;;15.07;8.48;;;4.10;99.90;;;;;;4989824;28;20034;-71
2022/01/18 03:33:18;;;;;;;15.50;8.88;;;4.10;99.90;;;;;;4971955;28;20035;-71
2022/01/18 03:35:45;;;;;;;15.13;8.43;;;4.10;99.90;;;;;;4984949;28;20073;-71
2022/01/18 03:38:12;;;;;;;15.32;8.73;;;4.10;99.90;;;;;;4973890;28;20033;-70
2022/01/18 03:40:38;;;;;;;16.27;8.93;;;4.10;99.90;;;;;;4986279;28;20030;-71
2022/01/18 03:43:07;;;;;;;16.20;8.38;;;4.10;99.90;;;;;;4974209;28;20106;-71
2022/01/18 03:45:41;;;;;;;15.05;8.48;;;4.10;99.90;;;;;;4995691;28;20097;-71
2022/01/18 03:48:11;;;;;;;;;;;4.20;99.90;;;;;;4994483;28;20029;-71
2022/01/18 03:50:37;;;;;;;16.67;9.38;;;4.10;99.90;;;;;;4990569;28;19910;-71
2022/01/18 03:53:03;;;;;;;21.10;10.52;;;4.20;99.90;;;;;;4984245;28;20399;-70
2022/01/18 03:55:29;;;;;;;19.52;9.77;;;4.20;99.90;;;;;;4974916;28;20042;-71
2022/01/18 03:57:55;;;;;;;18.75;9.38;;;4.20;99.90;;;;;;4976415;28;20030;-71
2022/01/18 04:00:24;;;;;;;19.63;10.65;;;4.20;99.90;;;;;;4984900;28;20042;-70
2022/01/18 04:02:50;;;;;;;17.85;9.93;;;4.20;99.90;;;;;;4978280;28;20506;-70
2022/01/18 04:05:17;;;;;;;17.75;10.02;;;4.20;99.90;;;;;;4979956;28;20022;-71
2022/01/18 04:07:43;;;;;;;16.60;9.70;;;4.30;99.90;;;;;;4975829;28;20030;-70
2022/01/18 04:10:10;;;;;;;16.40;9.18;;;4.20;99.90;;;;;;4994795;28;20376;-71
2022/01/18 04:12:36;;;;;;;15.73;9.80;;;4.30;99.90;;;;;;4972931;28;20084;-71
2022/01/18 04:15:04;;;;;;;17.55;9.68;;;4.20;99.90;;;;;;4975716;28;20498;-71
2022/01/18 04:28:20;;;;;;;16.10;8.85;;;4.20;99.90;;;;;;4992241;28;19916;-72
2022/01/18 04:30:47;;;;;;;16.15;8.73;;;4.20;99.90;;;;;;4986264;28;20033;-72
2022/01/18 04:33:12;;;;;;;15.57;7.93;;;4.20;99.90;;;;;;4971910;28;20031;-73
2022/01/18 04:35:38;;;;;;;14.68;8.02;;;4.20;99.90;;;;;;4985682;28;20122;-73
2022/01/18 04:38:03;;;;;;;13.35;7.72;;;4.20;99.90;;;;;;4992661;28;20038;-70
2022/01/18 04:40:32;;;;;;;15.02;7.88;;;4.20;99.90;;;;;;4983928;28;20031;-71
2022/01/18 04:50:55;;;;;;;15.13;7.82;;;4.20;99.90;;;;;;4988910;28;20085;-70
2022/01/18 04:53:21;;;;;;;14.55;7.70;;;4.20;99.90;;;;;;4974961;28;20030;-70
2022/01/18 04:55:53;;;;;;;13.38;6.97;;;4.20;99.90;;;;;;4969301;28;20089;-69
2022/01/18 04:58:19;;;;;;;14.70;7.97;;;4.20;99.90;;;;;;4985711;28;20058;-70
2022/01/18 05:00:45;;;;;;;12.90;7.90;;;4.20;99.90;;;;;;4981713;28;20493;-70
2022/01/18 05:03:10;;;;;;;14.57;7.82;;;4.20;99.90;;;;;;4972838;28;20109;-70
2022/01/18 05:05:37;;;;;;;15.60;7.57;;;4.20;99.90;;;;;;4970101;28;20030;-70
2022/01/18 05:08:05;;;;;;;14.18;7.60;;;4.20;99.90;;;;;;4990788;28;20406;-70
2022/01/18 05:10:32;;;;;;;15.13;8.63;;;4.20;99.90;;;;;;4988198;28;20057;-70
2022/01/18 05:13:01;;;;;;;16.75;8.38;;;4.20;99.90;;;;;;4983727;28;20034;-69
2022/01/18 05:23:10;;;;;;;18.40;9.43;;;4.20;99.90;;;;;;4992395;28;20082;-68
2022/01/18 05:25:37;;;;;;;19.30;9.98;;;4.20;99.90;;;;;;4984762;28;20490;-70
2022/01/18 05:28:04;;;;;;;15.30;9.27;;;4.20;99.90;;;;;;4991806;28;20031;-70
2022/01/18 05:30:31;;;;;;;18.23;10.07;;;4.30;99.90;;;;;;4980535;28;20026;-70
2022/01/18 05:32:58;;;;;;;17.20;10.00;;;4.30;99.90;;;;;;4988640;22;20035;-72
2022/01/18 05:35:24;;;;;;;20.83;10.20;;;4.30;99.90;;;;;;4972149;28;20091;-72
2022/01/18 05:37:50;;;;;;;16.02;9.68;;;4.30;99.90;;;;;;4972476;28;20061;-72
2022/01/18 05:40:17;;;;;;;16.13;10.13;;;4.30;99.90;;;;;;4970213;28;20476;-73
2022/01/18 05:42:43;;;;;;;21.77;10.02;;;4.30;99.90;;;;;;4976496;28;20023;-73
2022/01/18 05:45:10;;;;;;;22.83;11.00;;;4.20;99.90;;;;;;4971721;28;20036;-72
2022/01/18 05:47:37;;;;;;;19.25;10.68;;;4.10;99.90;;;;;;4955941;28;20031;-73
2022/01/18 05:50:04;;;;;;;19.50;10.82;;;4.10;99.90;;;;;;4977123;28;20365;-74
2022/01/18 05:52:30;;;;;;;19.13;10.70;;;4.10;99.90;;;;;;4969543;28;20023;-74
2022/01/18 05:54:55;;;;;;;19.33;10.40;;;4.10;99.90;;;;;;4973745;28;20045;-73
2022/01/18 05:57:21;;;;;;;18.65;10.50;;;4.20;99.90;;;;;;4975993;28;20015;-73
2022/01/18 05:59:47;;;;;;;19.70;11.63;;;4.10;99.90;;;;;;4973924;28;20080;-73
2022/01/18 06:02:19;;;;;;;25.20;12.88;;;4.10;99.90;;;;;;4977114;28;20026;-73
2022/01/18 06:07:30;;;;;;;18.48;10.98;;;4.10;99.90;;;;;;4976957;28;20033;-73
2022/01/18 06:09:56;;;;;;;20.60;11.95;;;4.20;99.90;;;;;;4969908;28;20022;-73
2022/01/18 06:12:29;;;;;;;20.33;11.25;;;4.20;99.90;;;;;;4978518;28;20105;-73
2022/01/18 06:14:54;;;;;;;20.42;11.07;;;4.20;99.90;;;;;;4979078;28;20018;-72
2022/01/18 06:17:20;;;;;;;21.75;11.65;;;4.20;99.90;;;;;;4980753;28;20030;-72
2022/01/18 06:19:46;;;;;;;24.33;12.07;;;4.20;99.90;;;;;;4976583;28;20062;-73
2022/01/18 06:22:12;;;;;;;20.15;10.77;;;4.20;99.90;;;;;;4956060;28;20085;-72
2022/01/18 06:24:37;;;;;;;19.48;10.93;;;4.20;99.90;;;;;;4976363;28;20030;-73
2022/01/18 06:27:03;;;;;;;20.00;12.27;;;4.20;99.90;;;;;;4973661;28;20027;-72
2022/01/18 06:29:29;;;;;;;20.58;11.95;;;4.20;99.90;;;;;;4972838;28;20074;-73
2022/01/18 06:31:55;;;;;;;20.30;10.98;;;4.20;99.90;;;;;;4972745;28;20027;-73
2022/01/18 06:34:20;;;;;;;22.42;11.82;;;4.20;99.90;;;;;;4981227;28;20069;-72
2022/01/18 06:36:46;;;;;;;21.92;12.30;;;4.20;99.90;;;;;;4971739;28;20495;-73
2022/01/18 06:39:12;;;;;;;21.17;11.70;;;4.20;99.90;;;;;;4974704;28;20100;-72
2022/01/18 06:41:38;;;;;;;20.30;12.27;;;4.20;99.90;;;;;;4973670;28;20037;-72
2022/01/18 06:44:04;;;;;;;19.48;11.43;;;4.10;99.90;;;;;;4971270;28;20039;-65
2022/01/18 06:46:30;;;;;;;22.88;12.55;;;4.20;99.90;;;;;;4973748;28;20026;-65
2022/01/18 06:48:55;;;;;;;23.75;13.15;;;4.30;99.90;;;;;;4949926;28;20019;-72
2022/01/18 06:51:21;;;;;;;22.92;12.98;;;4.30;99.90;;;;;;4970856;28;20031;-73
2022/01/18 06:53:48;;;;;;;23.85;12.35;;;4.30;99.90;;;;;;4974044;28;20054;-72
2022/01/18 06:56:16;;;;;;;23.70;12.35;;;4.30;99.90;;;;;;4975590;28;20114;-73
2022/01/18 06:58:42;;;;;;;21.38;12.07;;;4.30;99.90;;;;;;4978427;28;20081;-73
2022/01/18 07:01:10;;;;;;;23.55;13.18;;;4.20;99.90;;;;;;4974912;28;20475;-73
2022/01/18 07:03:36;;;;;;;24.80;13.13;;;4.20;99.90;;;;;;4977735;28;20090;-73
2022/01/18 07:06:01;;;;;;;26.70;13.13;;;4.10;99.90;;;;;;4977433;28;20026;-73
2022/01/18 07:08:28;;;;;;;27.42;14.50;;;4.10;99.90;;;;;;4973907;28;20331;-73
2022/01/18 07:10:53;;;;;;;29.17;14.98;;;4.00;99.90;;;;;;4969630;28;20129;-72
2022/01/18 07:13:19;;;;;;;26.23;14.95;;;4.00;99.90;;;;;;4977840;28;20087;-73
2022/01/18 07:15:45;;;;;;;32.15;15.05;;;3.90;99.90;;;;;;4958890;28;20032;-73
2022/01/18 07:18:10;;;;;;;32.17;15.43;;;3.90;99.90;;;;;;4956844;28;20027;-73
2022/01/18 07:20:38;;;;;;;26.40;14.35;;;3.90;99.90;;;;;;4972010;28;20527;-73
2022/01/18 07:23:07;;;;;;;27.27;13.23;;;3.90;99.90;;;;;;4954767;28;20019;-73
2022/01/18 07:25:33;;;;;;;31.30;14.82;;;3.90;99.90;;;;;;4958242;28;20081;-73
2022/01/18 07:27:59;;;;;;;24.23;13.23;;;3.90;99.90;;;;;;4958550;28;20038;-73
2022/01/18 07:30:25;;;;;;;30.85;14.93;;;3.80;99.90;;;;;;4973046;28;20503;-73
2022/01/18 07:32:51;;;;;;;43.05;16.13;;;3.80;99.90;;;;;;4975590;28;20030;-72
2022/01/18 07:35:17;;;;;;;39.78;16.95;;;3.80;99.90;;;;;;4980765;28;20026;-72
2022/01/18 07:37:43;;;;;;;39.28;18.48;;;3.80;99.90;;;;;;4953879;28;20282;-71
2022/01/18 07:40:09;;;;;;;41.05;17.95;;;3.80;99.90;;;;;;4976602;28;20084;-72
2022/01/18 07:42:35;;;;;;;44.28;18.60;;;3.80;99.90;;;;;;4969540;28;20039;-73
2022/01/18 07:45:01;;;;;;;53.90;19.73;;;3.70;99.90;;;;;;4971635;28;20384;-74
2022/01/18 07:47:27;;;;;;;45.95;16.55;;;3.80;99.90;;;;;;4961730;28;20488;-73
2022/01/18 07:49:53;;;;;;;54.38;20.25;;;3.80;99.90;;;;;;4966521;28;20108;-73
2022/01/18 07:52:19;;;;;;;46.58;20.15;;;3.80;99.90;;;;;;4967674;28;20352;-73
2022/01/18 07:54:45;;;;;;;58.08;20.70;;;3.70;99.90;;;;;;4969230;28;20030;-73
2022/01/18 07:57:12;;;;;;;50.40;21.33;;;3.80;99.90;;;;;;4965637;28;20022;-73
2022/01/18 07:59:38;;;;;;;55.42;20.55;;;3.80;99.90;;;;;;4970306;28;20015;-74
2022/01/18 08:02:04;;;;;;;66.22;21.15;;;3.70;99.90;;;;;;4952106;28;20502;-73
2022/01/18 08:04:29;;;;;;;53.75;20.58;;;3.70;99.90;;;;;;4969018;28;20038;-73
2022/01/18 08:06:55;;;;;;;49.53;21.25;;;3.70;99.90;;;;;;4969628;28;20042;-72
2022/01/18 08:09:22;;;;;;;53.10;21.52;;;3.70;99.90;;;;;;4973595;28;20026;-73
2022/01/18 08:11:48;;;;;;;47.42;19.33;;;3.70;99.90;;;;;;4972565;28;20094;-73
2022/01/18 08:14:16;;;;;;;50.70;20.23;;;3.70;99.90;;;;;;4976248;28;20053;-73
2022/01/18 08:19:11;;;;;;;47.75;19.92;;;3.70;99.90;;;;;;4966519;28;20077;-73
2022/01/18 08:21:37;;;;;;;53.28;19.95;;;3.70;99.90;;;;;;4952242;28;20035;-71
2022/01/18 08:24:03;;;;;;;54.10;20.67;;;3.70;99.90;;;;;;4953670;28;20111;-72
2022/01/18 08:26:29;;;;;;;57.38;21.75;;;3.70;99.90;;;;;;4955792;28;20054;-71
2022/01/18 08:28:54;;;;;;;46.03;19.80;;;3.70;99.90;;;;;;4967731;28;20512;-71
2022/01/18 08:31:20;;;;;;;45.88;19.70;;;3.80;99.90;;;;;;4976259;28;20542;-73
2022/01/18 08:33:46;;;;;;;46.22;19.88;;;3.80;99.90;;;;;;4971839;28;20038;-72
2022/01/18 08:36:12;;;;;;;46.67;20.08;;;3.90;99.90;;;;;;4957574;28;20318;-72
2022/01/18 08:38:39;;;;;;;45.38;19.42;;;3.90;99.90;;;;;;4966386;28;20031;-72
2022/01/18 08:41:07;;;;;;;37.63;17.30;;;4.00;99.90;;;;;;4967792;28;20063;-72
2022/01/18 08:43:36;;;;;;;37.72;17.55;;;4.10;99.90;;;;;;4972636;28;20019;-73
2022/01/18 08:46:06;;;;;;;41.13;18.48;;;4.00;99.90;;;;;;4969490;28;20054;-72
2022/01/18 08:48:32;;;;;;;49.20;20.08;;;4.10;99.90;;;;;;4969168;28;20312;-75
2022/01/18 08:50:59;;;;;;;44.13;18.80;;;4.20;99.90;;;;;;4963843;28;20099;-71
2022/01/18 08:53:25;;;;;;;36.83;16.55;;;4.20;99.90;;;;;;4945894;28;20125;-71
2022/01/18 08:55:51;;;;;;;36.30;16.73;;;4.20;99.90;;;;;;4952809;28;20110;-72
2022/01/18 08:58:17;;;;;;;43.45;17.52;;;4.20;99.90;;;;;;4970336;28;20027;-72
2022/01/18 09:00:42;;;;;;;43.15;17.85;;;4.30;99.90;;;;;;4965880;28;20039;-71
2022/01/18 09:03:10;;;;;;;37.13;17.40;;;4.30;99.90;;;;;;4974018;28;20106;-71
2022/01/18 09:05:37;;;;;;;44.30;19.00;;;4.40;99.90;;;;;;4956340;28;20023;-72
2022/01/18 09:08:06;;;;;;;35.13;16.85;;;4.40;99.90;;;;;;4967940;28;20022;-71
2022/01/18 09:10:32;;;;;;;42.55;18.05;;;4.40;99.90;;;;;;4959551;28;20035;-71
2022/01/18 09:12:58;;;;;;;44.08;19.27;;;4.40;99.90;;;;;;4972925;28;20039;-71
2022/01/18 09:15:25;;;;;;;42.83;17.90;;;4.40;99.90;;;;;;4975810;28;20027;-73
2022/01/18 09:17:51;;;;;;;42.25;17.25;;;4.40;99.90;;;;;;4956745;28;20027;-74
2022/01/18 09:20:18;;;;;;;39.67;17.23;;;4.40;99.90;;;;;;4974279;28;20078;-73
2022/01/18 09:22:45;;;;;;;41.97;18.15;;;4.40;99.90;;;;;;4975913;28;20023;-73
2022/01/18 09:25:22;;;;;;;37.65;15.32;;;4.50;99.90;;;;;;4980182;28;20018;-74
2022/01/18 09:27:48;;;;;;;36.83;16.67;;;4.40;99.90;;;;;;4972554;28;20494;-74
2022/01/18 09:30:15;;;;;;;38.40;16.27;;;4.40;99.90;;;;;;4955287;28;20027;-73
2022/01/18 09:32:43;;;;;;;43.60;18.02;;;4.40;99.90;;;;;;4955778;28;20038;-73
2022/01/18 09:35:10;;;;;;;39.50;17.42;;;4.50;99.90;;;;;;4957120;28;20074;-74
2022/01/18 09:37:35;;;;;;;33.60;14.85;;;4.50;99.90;;;;;;4975802;28;20480;-74
2022/01/18 09:40:02;;;;;;;37.17;16.48;;;4.50;99.90;;;;;;4973727;28;20028;-73
2022/01/18 09:42:33;;;;;;;41.75;17.83;;;4.60;99.90;;;;;;4978847;28;20034;-73
2022/01/18 09:45:09;;;;;;;41.10;18.23;;;4.70;99.90;;;;;;4977528;28;20106;-73
2022/01/18 09:47:35;;;;;;;43.60;17.95;;;4.70;99.90;;;;;;4975796;28;20512;-73
2022/01/18 09:50:01;;;;;;;39.75;18.83;;;4.70;99.90;;;;;;4978994;28;20054;-73
2022/01/18 09:52:27;;;;;;;43.05;17.65;;;4.70;99.90;;;;;;4978378;28;20077;-74
2022/01/18 09:54:53;;;;;;;51.53;18.38;;;4.80;99.90;;;;;;4959971;28;20034;-74
2022/01/18 09:57:19;;;;;;;43.33;18.23;;;4.80;99.90;;;;;;4975003;28;20086;-74
2022/01/18 09:59:44;;;;;;;34.03;16.08;;;4.90;99.90;;;;;;4977070;28;20031;-74
2022/01/18 10:02:10;;;;;;;38.92;17.88;;;4.90;99.90;;;;;;4973368;28;20026;-73
2022/01/18 10:04:42;;;;;;;40.45;18.08;;;4.90;99.90;;;;;;4974017;28;20114;-74
2022/01/18 10:07:08;;;;;;;44.85;19.80;;;4.80;99.90;;;;;;4977603;28;20031;-74
2022/01/18 10:09:35;;;;;;;39.13;19.27;;;4.80;99.90;;;;;;4954318;28;20023;-73
2022/01/18 10:12:08;;;;;;;36.42;18.77;;;4.80;99.90;;;;;;4955687;28;20031;-73
2022/01/18 10:14:36;;;;;;;40.22;18.42;;;4.80;99.90;;;;;;4977085;28;20453;-73
2022/01/18 10:17:03;;;;;;;38.72;18.70;;;5.00;99.90;;;;;;4974016;28;20037;-73
2022/01/18 10:19:33;;;;;;;40.13;19.33;;;5.00;99.90;;;;;;4955017;28;20045;-74
2022/01/18 10:22:08;;;;;;;37.05;18.63;;;4.90;99.90;;;;;;4973377;28;20520;-72
2022/01/18 10:24:34;;;;;;;40.00;19.15;;;5.00;99.90;;;;;;4974300;28;20037;-73
2022/01/18 10:26:59;;;;;;;42.55;19.88;;;5.00;99.90;;;;;;4976618;28;20100;-73
2022/01/18 10:29:28;;;;;;;36.65;17.65;;;5.00;99.90;;;;;;4973239;28;20041;-75
2022/01/18 10:31:57;;;;;;;39.42;19.20;;;4.90;99.90;;;;;;4950929;28;20038;-74
2022/01/18 10:37:05;;;;;;;34.78;16.08;;;4.90;99.90;;;;;;4975398;28;20031;-75
2022/01/18 10:39:40;;;;;;;30.73;15.48;;;4.90;99.90;;;;;;4958205;28;20058;-75
2022/01/18 10:42:13;;;;;;;35.75;17.88;;;5.00;99.90;;;;;;4973026;28;20625;-75
2022/01/18 10:44:39;;;;;;;42.23;19.40;;;5.00;99.90;;;;;;4958932;28;20086;-74
2022/01/18 10:47:05;;;;;;;37.45;18.33;;;5.10;99.90;;;;;;4954305;28;20023;-71
2022/01/18 10:49:40;;;;;;;39.75;14.50;;;5.20;99.90;;;;;;4959698;28;20066;-74
2022/01/18 10:52:06;;;;;;;27.77;14.95;;;5.10;99.90;;;;;;4958980;28;20032;-73
2022/01/18 10:54:40;;;;;;;26.60;13.98;;;5.20;99.90;;;;;;4969262;28;20081;-73
2022/01/18 10:57:08;;;;;;;29.35;14.02;;;5.20;99.90;;;;;;4971571;28;20031;-74
2022/01/18 10:59:37;;;;;;;24.83;12.00;;;5.20;99.90;;;;;;4972505;28;20082;-73
2022/01/18 11:02:15;;;;;;;27.88;13.52;;;5.20;99.90;;;;;;4965203;28;20448;-73
2022/01/18 11:04:45;;;;;;;30.08;14.73;;;5.20;99.90;;;;;;4975782;28;20054;-72
2022/01/18 11:07:12;;;;;;;28.60;14.52;;;5.30;99.90;;;;;;4974729;28;20042;-75
2022/01/18 11:09:38;;;;;;;30.15;13.77;;;5.40;99.90;;;;;;4966724;28;20098;-74
2022/01/18 11:12:05;;;;;;;31.25;13.27;;;5.30;99.90;;;;;;4956768;28;20026;-73
2022/01/18 11:14:32;;;;;;;26.02;12.43;;;5.40;99.90;;;;;;4974703;28;20027;-75
2022/01/18 11:16:59;;;;;;;27.95;12.52;;;5.40;99.90;;;;;;4952921;28;20404;-74
2022/01/18 11:21:54;;;;;;;27.08;11.50;;;5.50;99.90;;;;;;4974124;28;20403;-74
2022/01/18 11:24:21;;;;;;;18.90;10.13;;;5.50;99.90;;;;;;4971531;28;20077;-74
2022/01/18 11:26:48;;;;;;;19.75;9.40;;;5.50;99.90;;;;;;4968906;28;20413;-75
2022/01/18 11:29:17;;;;;;;26.73;11.52;;;5.60;99.90;;;;;;4951618;28;20201;-71
2022/01/18 11:31:47;;;;;;;28.98;14.05;;;5.60;99.90;;;;;;4999461;23;20116;-72
2022/01/18 11:34:27;;;;;;;22.13;10.48;;;5.60;99.90;;;;;;4988652;28;20042;-72
2022/01/18 11:37:03;;;;;;;23.48;10.48;;;5.60;99.90;;;;;;4990865;28;20021;-73
2022/01/18 11:39:31;;;;;;;26.77;11.88;;;5.60;99.90;;;;;;4987356;28;20027;-74
2022/01/18 11:42:13;;;;;;;5.45;2.78;;;5.60;99.90;;;;;;4971968;28;20513;-74
2022/01/18 11:44:41;;;;;;;5.55;2.65;;;5.50;99.90;;;;;;4973363;28;20031;-73
2022/01/18 11:47:08;;;;;;;4.82;1.80;;;5.60;99.90;;;;;;4975318;28;20029;-73
2022/01/18 11:49:34;;;;;;;10.05;4.80;;;5.60;99.90;;;;;;4993358;28;20018;-73
2022/01/18 11:52:10;;;;;;;23.48;9.52;;;5.60;99.90;;;;;;4993688;28;20509;-74
2022/01/18 11:57:22;;;;;;;7.03;2.10;;;5.70;99.90;;;;;;4992948;28;20034;-72
2022/01/18 11:59:56;;;;;;;2.88;1.05;;;5.70;99.90;;;;;;4993543;28;20518;-74
2022/01/18 12:02:40;;;;;;;6.55;1.30;;;5.70;99.90;;;;;;4977775;28;20360;-64
2022/01/18 12:05:24;;;;;;;3.20;1.50;;;5.80;99.90;;;;;;4973639;28;20023;-72
2022/01/18 12:08:00;;;;;;;;;;;5.90;99.90;;;;;;4973466;28;20031;-72
2022/01/18 12:10:33;;;;;;;3.55;1.10;;;6.10;99.90;;;;;;4975411;28;19905;-74
2022/01/18 12:13:03;;;;;;;2.80;1.13;;;6.20;99.90;;;;;;4975220;28;20166;-74
2022/01/18 12:15:38;;;;;;;2.58;1.10;;;6.40;99.90;;;;;;4993118;28;20037;-74
2022/01/18 12:18:26;;;;;;;3.53;1.45;;;6.50;99.90;;;;;;5007880;28;20026;-74
2022/01/18 12:20:57;;;;;;;4.45;1.30;;;6.60;99.90;;;;;;5011155;28;20049;-74
2022/01/18 12:23:27;;;;;;;3.50;1.02;;;6.50;99.90;;;;;;5011022;28;20486;-73
2022/01/18 12:35:07;;;;;;;2.22;1.00;;;6.80;99.90;;;;;;4988397;28;20096;-74
2022/01/18 12:37:17;;;;;;;2.53;1.13;;;6.60;99.90;;;;;;4978572;28;20034;-73
2022/01/18 12:44:20;;;;;;;2.05;0.77;;;6.50;99.90;;;;;;4983293;28;20121;-74
2022/01/18 12:45:08;;;;;;;12.60;6.00;;;6.50;99.90;;;;;;4997969;28;20200;-74
2022/01/18 12:47:36;;;;;;;12.35;6.57;;;6.50;99.90;;;;;;4955997;28;20117;-73
2022/01/18 12:50:08;;;;;;;17.65;7.80;;;6.50;99.90;;;;;;4985910;28;20021;-73
2022/01/18 12:52:48;;;;;;;15.80;8.43;;;6.50;99.90;;;;;;4994582;28;20510;-73
2022/01/18 12:55:38;;;;;;;17.13;7.82;;;6.40;99.90;;;;;;4979166;28;20066;-73
2022/01/18 12:58:03;;;;;;;16.58;7.38;;;6.30;99.90;;;;;;4996062;28;20444;-73
2022/01/18 13:00:34;;;;;;;16.92;7.60;;;6.20;99.90;;;;;;4978784;28;20061;-73
2022/01/18 13:03:01;;;;;;;21.80;8.55;;;6.20;99.90;;;;;;4978446;28;20290;-73
2022/01/18 13:05:39;;;;;;;17.05;8.32;;;6.30;99.90;;;;;;4978724;28;20045;-73
2022/01/18 13:08:05;;;;;;;21.60;8.93;;;6.30;99.90;;;;;;4978771;28;20427;-73
2022/01/18 13:10:45;;;;;;;17.42;9.35;;;6.20;99.90;;;;;;4978674;28;20399;-73
2022/01/18 13:13:14;;;;;;;22.15;9.30;;;6.10;99.90;;;;;;4978662;28;20442;-73
2022/01/18 13:26:30;;;;;;;16.45;8.77;;;6.00;99.90;;;;;;4996209;28;20394;-73
2022/01/18 13:29:16;;;;;;;19.90;7.22;;;6.00;99.90;;;;;;4978367;28;20023;-73
2022/01/18 13:31:45;;;;;;;11.30;6.25;;;6.00;99.90;;;;;;4977894;28;20409;-73
2022/01/18 13:34:14;;;;;;;21.52;8.75;;;5.90;99.90;;;;;;4995915;28;20030;-73
2022/01/18 13:36:59;;;;;;;16.58;7.53;;;5.90;99.90;;;;;;4978347;28;20027;-73
2022/01/18 13:39:31;;;;;;;17.98;8.00;;;5.90;99.90;;;;;;4995905;28;20502;-73
2022/01/18 13:41:59;;;;;;;21.48;9.88;;;5.90;99.90;;;;;;4978074;28;20038;-73
2022/01/18 13:44:26;;;;;;;18.83;8.32;;;6.00;99.90;;;;;;4995034;28;20022;-73
2022/01/18 13:46:52;;;;;;;13.50;6.53;;;6.00;99.90;;;;;;4992234;28;20026;-74
2022/01/18 13:49:23;;;;;;;16.83;6.85;;;6.00;99.90;;;;;;4979331;28;20050;-74
2022/01/18 13:52:00;;;;;;;9.85;4.13;;;6.10;99.90;;;;;;4993251;28;20494;-74
2022/01/18 13:54:28;;;;;;;14.35;4.78;;;6.10;99.90;;;;;;4988599;28;20436;-74
2022/01/18 13:56:55;;;;;;;6.63;3.40;;;6.20;99.90;;;;;;4990228;28;20034;-74
2022/01/18 13:59:26;;;;;;;9.77;2.72;;;6.10;99.90;;;;;;4975475;28;20025;-74
2022/01/18 14:01:52;;;;;;;10.82;5.13;;;6.10;99.90;;;;;;4975937;28;20022;-73
2022/01/18 14:04:23;;;;;;;10.90;5.72;;;6.10;99.90;;;;;;4986035;28;20042;-74
2022/01/18 14:06:50;;;;;;;16.95;7.30;;;6.10;99.90;;;;;;4973048;28;20027;-74
2022/01/18 14:09:20;;;;;;;14.52;7.18;;;6.10;99.90;;;;;;4975361;28;20023;-74
2022/01/18 14:11:52;;;;;;;19.05;7.45;;;6.00;99.90;;;;;;4975623;28;20031;-73
2022/01/18 14:14:30;;;;;;;16.75;7.18;;;6.00;99.90;;;;;;4975566;28;20038;-74
2022/01/18 14:16:57;;;;;;;14.73;7.15;;;5.90;99.90;;;;;;4975289;28;20034;-74
2022/01/18 14:19:29;;;;;;;15.15;7.00;;;5.90;99.90;;;;;;4958449;28;20094;-73
2022/01/18 14:21:58;;;;;;;15.48;6.70;;;5.90;99.90;;;;;;4958072;28;20066;-74
2022/01/18 14:24:36;;;;;;;15.55;7.00;;;5.90;99.90;;;;;;4975564;28;20019;-73
2022/01/18 14:27:05;;;;;;;14.70;6.90;;;5.80;99.90;;;;;;4958132;28;20026;-73
2022/01/18 14:29:43;;;;;;;15.07;6.95;;;5.80;99.90;;;;;;4957922;28;20439;-74
2022/01/18 14:32:11;;;;;;;16.10;7.75;;;5.70;99.90;;;;;;4981701;28;20121;-74
2022/01/18 14:34:40;;;;;;;19.75;8.55;;;5.70;99.90;;;;;;4992690;28;20026;-74
2022/01/18 14:37:08;;;;;;;14.20;7.20;;;5.70;99.90;;;;;;4994827;28;20116;-74